San Andres del Rabanedo, Spain
Current Conditions -  °F | °C
As of 7:00 AM on Friday 31 Oct 2014 (Local Time) from LELN Reporting Station
Clear Clear  
Wind Chill: 50°   Ceiling: Unl
Heat Index: 50°   Visibility: 6mi
Dew Point: 41°   Wind: 3mph
Humidity: 71%   Direction: 360°N
Pressure: 30.21"   Gusts: NA
Location:  42.61°N, 5.62°W
Report Text: LELN 310600Z 36003KT CAVOK 10/05 Q1023
Loading
Personal Weather Stations






























Interactive Weather Map
Tropical Storm Tracking
New forecast layout! Learn more

10-Day Weather Forecast

Advertisements
Track Severe Weather on mobile